This is the latest recevied weather packets stored in our database for station/object KSRR. If no packets are shown the sender has not sent any weather packets the latest 10 day(s).
| Time | Temp. | Humidity | Pressure | Rain* | Wind** | Luminosity | Snow |
|---|---|---|---|---|---|---|---|
| 1777902218 | 15° C | 28% | 1018.3 hPa | - | - | - | - |
| 1777901622 | 15° C | 30% | 1018.3 hPa | - | - | - | - |
| 1777901019 | 15° C | 30% | 1018.3 hPa | - | - | - | - |
| 1777900418 | 13.89° C | 35% | 1017.9 hPa | - | - | - | - |
| 1777899818 | 13.89° C | 35% | 1017.9 hPa | - | - | - | - |
| 1777899221 | 13.89° C | - | 1017.6 hPa | - | - | - | - |
| 1777898621 | 13.89° C | - | 1017.6 hPa | - | - | - | - |
| 1777898022 | 13.89° C | - | 1017.9 hPa | - | - | - | - |
| 1777897420 | 13.89° C | - | 1017.9 hPa | - | - | - | - |
| 1777896817 | 13.89° C | 41% | 1016.9 hPa | - | - | - | - |
| 1777896218 | 13.89° C | 41% | 1016.9 hPa | - | - | - | - |
| 1777895617 | 12.78° C | 47% | 1016.6 hPa | - | - | - | - |
| 1777895020 | 12.78° C | 47% | 1016.6 hPa | - | - | - | - |
| 1777894420 | 12.78° C | 47% | 1017.3 hPa | - | - | - | - |
| 1777893819 | 12.78° C | 47% | 1017.3 hPa | - | - | - | - |
| 1777893222 | 13.89° C | 44% | 1017.3 hPa | - | - | - | - |
| 1777892618 | 13.89° C | 44% | 1017.3 hPa | - | - | - | - |
| 1777892022 | 12.78° C | 50% | 1017.6 hPa | - | - | - | - |
| 1777891419 | 12.78° C | 50% | 1017.6 hPa | - | - | - | - |
| 1777890820 | 12.78° C | 50% | 1017.9 hPa | - | - | - | - |
| 1777890217 | 12.78° C | 50% | 1017.9 hPa | - | - | - | - |
| 1777889617 | 11.67° C | 54% | 1017.6 hPa | - | - | - | - |
| 1777889018 | 11.67° C | 54% | 1017.6 hPa | - | - | - | - |
| 1777888422 | 11.67° C | 50% | 1017.9 hPa | - | - | - | - |
| 1777887819 | 11.67° C | 50% | 1017.9 hPa | - | - | - | - |
* Rain since midnight (hover to see other rain measurements)
** Current wind speed in m/s (hover to see current wind gust speed)